Map

Track Data

SID SEASON NUMBER BASIN SUBBASIN NAME ISO_TIME NATURE LAT LON WMO_WIND WMO_PRES WMO_AGENCY TRACK_TYPE DIST2LAND LANDFALL IFLAG USA_AGENCY USA_ATCF_ID USA_LAT USA_LON USA_RECORD USA_STATUS USA_WIND USA_PRES USA_SSHS USA_R34_NE USA_R34_SE USA_R34_SW USA_R34_NW USA_R50_NE USA_R50_SE USA_R50_SW USA_R50_NW USA_R64_NE USA_R64_SE USA_R64_SW USA_R64_NW USA_POCI USA_ROCI USA_RMW USA_EYE TOKYO_LAT TOKYO_LON TOKYO_GRADE TOKYO_WIND TOKYO_PRES TOKYO_R50_DIR TOKYO_R50_LONG TOKYO_R50_SHORT TOKYO_R30_DIR TOKYO_R30_LONG TOKYO_R30_SHORT TOKYO_LAND CMA_LAT CMA_LON CMA_CAT CMA_WIND CMA_PRES HKO_LAT HKO_LON HKO_CAT HKO_WIND HKO_PRES NEWDELHI_LAT NEWDELHI_LON NEWDELHI_GRADE NEWDELHI_WIND NEWDELHI_PRES NEWDELHI_CI NEWDELHI_DP NEWDELHI_POCI REUNION_LAT REUNION_LON REUNION_TYPE REUNION_WIND REUNION_PRES REUNION_TNUM REUNION_CI REUNION_RMW REUNION_R34_NE REUNION_R34_SE REUNION_R34_SW REUNION_R34_NW REUNION_R50_NE REUNION_R50_SE REUNION_R50_SW REUNION_R50_NW REUNION_R64_NE REUNION_R64_SE REUNION_R64_SW REUNION_R64_NW BOM_LAT BOM_LON BOM_TYPE BOM_WIND BOM_PRES BOM_TNUM BOM_CI BOM_RMW BOM_R34_NE BOM_R34_SE BOM_R34_SW BOM_R34_NW BOM_R50_NE BOM_R50_SE BOM_R50_SW BOM_R50_NW BOM_R64_NE BOM_R64_SE BOM_R64_SW BOM_R64_NW BOM_ROCI BOM_POCI BOM_EYE BOM_POS_METHOD BOM_PRES_METHOD NADI_LAT NADI_LON NADI_CAT NADI_WIND NADI_PRES WELLINGTON_LAT WELLINGTON_LON WELLINGTON_WIND WELLINGTON_PRES DS824_LAT DS824_LON DS824_STAGE DS824_WIND DS824_PRES TD9636_LAT TD9636_LON TD9636_STAGE TD9636_WIND TD9636_PRES TD9635_LAT TD9635_LON TD9635_WIND TD9635_PRES TD9635_ROCI NEUMANN_LAT NEUMANN_LON NEUMANN_CLASS NEUMANN_WIND NEUMANN_PRES MLC_LAT MLC_LON MLC_CLASS MLC_WIND MLC_PRES USA_GUST BOM_GUST BOM_GUST_PER REUNION_GUST REUNION_GUST_PER USA_SEAHGT USA_SEARAD_NE USA_SEARAD_SE USA_SEARAD_SW USA_SEARAD_NW STORM_SPEED STORM_DIR
1863032S12059 1863 3 SI MM NOT_NAMED 1863-02-01 06:00:00 NR -12.1000 59.3000 reunion main 911 885 _____O________ -1 -12.1000 59.3000 99 9.90000 5 227
1863032S12059 1863 3 SI MM NOT_NAMED 1863-02-01 09:00:00 NR -12.2751 59.1084 main 885 871 _____P________ -1 -12.2751 59.1084 99 5 227
1863032S12059 1863 3 SI MM NOT_NAMED 1863-02-01 12:00:00 NR -12.4548 58.9147 main 860 846 _____P________ -1 -12.4548 58.9147 99 5 226
1863032S12059 1863 3 SI MM NOT_NAMED 1863-02-01 15:00:00 NR -12.6440 58.7170 main 846 821 _____P________ -1 -12.6440 58.7170 99 6 225
1863032S12059 1863 3 SI MM NOT_NAMED 1863-02-01 18:00:00 NR -12.8475 58.5134 main 821 785 _____P________ -1 -12.8475 58.5134 99 6 224
1863032S12059 1863 3 SI MM NOT_NAMED 1863-02-01 21:00:00 NR -13.0700 58.3019 main 785 762 _____P________ -1 -13.0700 58.3019 99 6 222
1863032S12059 1863 3 SI MM NOT_NAMED 1863-02-02 00:00:00 NR -13.3164 58.0805 main 762 727 _____P________ -1 -13.3164 58.0805 99 7 220
1863032S12059 1863 3 SI MM NOT_NAMED 1863-02-02 03:00:00 NR -13.5915 57.8472 main 727 693 _____P________ -1 -13.5915 57.8472 99 8 219
1863032S12059 1863 3 SI MM NOT_NAMED 1863-02-02 06:00:00 NR -13.9000 57.6000 reunion main 693 660 _____O________ -1 -13.9000 57.6000 99 9.90000 8 217
1863032S12059 1863 3 SI MM NOT_NAMED 1863-02-02 09:00:00 NR -14.2447 57.3379 main 660 616 _____P________ -1 -14.2447 57.3379 99 9 216
1863032S12059 1863 3 SI MM NOT_NAMED 1863-02-02 12:00:00 NR -14.6202 57.0649 main 616 575 _____P________ -1 -14.6202 57.0649 99 9 215
1863032S12059 1863 3 SI MM NOT_NAMED 1863-02-02 15:00:00 NR -15.0190 56.7863 main 575 534 _____P________ -1 -15.0190 56.7863 99 10 213
1863032S12059 1863 3 SI MM NOT_NAMED 1863-02-02 18:00:00 NR -15.4335 56.5075 main 536 497 _____P________ -1 -15.4335 56.5075 99 10 212
1863032S12059 1863 3 SI MM NOT_NAMED 1863-02-02 21:00:00 NR -15.8562 56.2340 main 489 453 _____P________ -1 -15.8562 56.2340 99 10 211
1863032S12059 1863 3 SI MM NOT_NAMED 1863-02-03 00:00:00 NR -16.2798 55.9711 main 453 420 _____P________ -1 -16.2798 55.9711 99 10 210
1863032S12059 1863 3 SI MM NOT_NAMED 1863-02-03 03:00:00 NR -16.6969 55.7246 main 425 396 _____P________ -1 -16.6969 55.7246 99 9 209
1863032S12059 1863 3 SI MM NOT_NAMED 1863-02-03 06:00:00 NR -17.1000 55.5000 reunion main 396 380 _____O________ -1 -17.1000 55.5000 99 9.90000 8 211
1863032S12059 1863 3 SI MM NOT_NAMED 1863-02-03 09:00:00 NR -17.4014 55.2849 main 380 368 _____P________ -1 -17.4014 55.2849 99 7 214
1863032S12059 1863 3 SI MM NOT_NAMED 1863-02-03 12:00:00 NR -17.6851 55.0877 main 368 348 _____P________ -1 -17.6851 55.0877 99 7 212
1863032S12059 1863 3 SI MM NOT_NAMED 1863-02-03 15:00:00 NR -17.9651 54.9105 main 338 317 _____P________ -1 -17.9651 54.9105 99 7 209
1863032S12059 1863 3 SI MM NOT_NAMED 1863-02-03 18:00:00 NR -18.2554 54.7556 main 306 278 _____P________ -1 -18.2554 54.7556 99 7 204
1863032S12059 1863 3 SI MM NOT_NAMED 1863-02-03 21:00:00 NR -18.5700 54.6249 main 278 249 _____P________ -1 -18.5700 54.6249 99 7 199
1863032S12059 1863 3 SI MM NOT_NAMED 1863-02-04 00:00:00 NR -18.9229 54.5206 main 249 207 _____P________ -1 -18.9229 54.5206 99 8 193
1863032S12059 1863 3 SI MM NOT_NAMED 1863-02-04 03:00:00 NR -19.3282 54.4449 main 212 163 _____P________ -1 -19.3282 54.4449 99 9 187
1863032S12059 1863 3 SI MM NOT_NAMED 1863-02-04 06:00:00 NR -19.8000 54.4000 reunion main 163 114 _____O________ -1 -19.8000 54.4000 99 9.90000 11 184
1863032S12059 1863 3 SI MM NOT_NAMED 1863-02-04 09:00:00 NR -20.4472 54.3661 main 114 82 _____P________ -1 -20.4472 54.3661 99 14 182
1863032S12059 1863 3 SI MM NOT_NAMED 1863-02-04 12:00:00 NR -21.1683 54.3635 main 83 83 _____P________ -1 -21.1683 54.3635 99 15 0
1863032S12059 1863 3 SI MM NOT_NAMED 1863-02-04 15:00:00 NR -21.9376 54.3904 main 114 114 _____P________ -1 -21.9376 54.3904 99 16 177
1863032S12059 1863 3 SI MM NOT_NAMED 1863-02-04 18:00:00 NR -22.7293 54.4448 main 181 181 _____P________ -1 -22.7293 54.4448 99 16 175
1863032S12059 1863 3 SI MM NOT_NAMED 1863-02-04 21:00:00 NR -23.5173 54.5250 main 259 259 _____P________ -1 -23.5173 54.5250 99 16 174
1863032S12059 1863 3 SI MM NOT_NAMED 1863-02-05 00:00:00 NR -24.2756 54.6290 main 339 339 _____P________ -1 -24.2756 54.6290 99 15 172
1863032S12059 1863 3 SI MM NOT_NAMED 1863-02-05 03:00:00 NR -24.9785 54.7547 main 410 410 _____P________ -1 -24.9785 54.7547 99 14 169
1863032S12059 1863 3 SI MM NOT_NAMED 1863-02-05 06:00:00 NR -25.6000 54.9000 reunion main 474 474 _____O________ -1 -25.6000 54.9000 99 9.90000 11 166
1863032S12059 1863 3 SI MM NOT_NAMED 1863-02-05 09:00:00 NR -26.0652 55.0506 main 527 527 _____P________ -1 -26.0652 55.0506 99 9 161
1863032S12059 1863 3 SI MM NOT_NAMED 1863-02-05 12:00:00 NR -26.4585 55.2248 main 571 570 _____P________ -1 -26.4585 55.2248 99 8 156
1863032S12059 1863 3 SI MM NOT_NAMED 1863-02-05 15:00:00 NR -26.7905 55.4178 main 603 603 _____P________ -1 -26.7905 55.4178 99 7 150
1863032S12059 1863 3 SI MM NOT_NAMED 1863-02-05 18:00:00 NR -27.0718 55.6250 main 636 636 _____P________ -1 -27.0718 55.6250 99 6 144
1863032S12059 1863 3 SI MM NOT_NAMED 1863-02-05 21:00:00 NR -27.3129 55.8415 main 659 659 _____P________ -1 -27.3129 55.8415 99 6 139
1863032S12059 1863 3 SI MM NOT_NAMED 1863-02-06 00:00:00 NR -27.5243 56.0627 main 683 683 _____P________ -1 -27.5243 56.0627 99 6 136
1863032S12059 1863 3 SI MM NOT_NAMED 1863-02-06 03:00:00 NR -27.7165 56.2838 main 707 707 _____P________ -1 -27.7165 56.2838 99 5 134
1863032S12059 1863 3 SI MM NOT_NAMED 1863-02-06 06:00:00 NR -27.9000 56.5000 reunion main 731 731 _____O________ -1 -27.9000 56.5000 99 9.90000 5 140
1863032S12059 1863 3 SI MM NOT_NAMED 1863-02-06 09:00:00 NR -28.1060 56.6514 main 756 756 _____P________ -1 -28.1060 56.6514 99 5 146
1863032S12059 1863 3 SI MM NOT_NAMED 1863-02-06 12:00:00 NR -28.2930 56.7951 main 780 780 _____P________ -1 -28.2930 56.7951 99 4 145
1863032S12059 1863 3 SI MM NOT_NAMED 1863-02-06 15:00:00 NR -28.4679 56.9398 main 804 804 _____P________ -1 -28.4679 56.9398 99 4 143
1863032S12059 1863 3 SI MM NOT_NAMED 1863-02-06 18:00:00 NR -28.6377 57.0948 main 818 818 _____P________ -1 -28.6377 57.0948 99 4 140
1863032S12059 1863 3 SI MM NOT_NAMED 1863-02-06 21:00:00 NR -28.8090 57.2690 main 844 844 _____P________ -1 -28.8090 57.2690 99 5 137
1863032S12059 1863 3 SI MM NOT_NAMED 1863-02-07 00:00:00 NR -28.9887 57.4716 main 870 870 _____P________ -1 -28.9887 57.4716 99 5 134
1863032S12059 1863 3 SI MM NOT_NAMED 1863-02-07 03:00:00 NR -29.1835 57.7121 main 896 896 _____P________ -1 -29.1835 57.7121 99 6 132
1863032S12059 1863 3 SI MM NOT_NAMED 1863-02-07 06:00:00 NR -29.4000 58.0000 reunion main 925 925 _____O________ -1 -29.4000 58.0000 99 9.90000 8 130
1863032S12059 1863 3 SI MM NOT_NAMED 1863-02-07 09:00:00 NR -29.6998 58.4100 main 968 968 _____P________ -1 -29.6998 58.4100 99 10 129
1863032S12059 1863 3 SI MM NOT_NAMED 1863-02-07 12:00:00 NR -30.0230 58.8749 main 1015 1015 _____P________ -1 -30.0230 58.8749 99 11 128
1863032S12059 1863 3 SI MM NOT_NAMED 1863-02-07 15:00:00 NR -30.3577 59.3772 main 1074 1074 _____P________ -1 -30.3577 59.3772 99 11 127
1863032S12059 1863 3 SI MM NOT_NAMED 1863-02-07 18:00:00 NR -30.6921 59.8989 main 1123 1123 _____P________ -1 -30.6921 59.8989 99 11 126
1863032S12059 1863 3 SI MM NOT_NAMED 1863-02-07 21:00:00 NR -31.0146 60.4212 main 1173 1173 _____P________ -1 -31.0146 60.4212 99 11 125
1863032S12059 1863 3 SI MM NOT_NAMED 1863-02-08 00:00:00 NR -31.3140 60.9253 main 1224 1224 _____P________ -1 -31.3140 60.9253 99 10 124
1863032S12059 1863 3 SI MM NOT_NAMED 1863-02-08 03:00:00 NR -31.5794 61.3915 main 1276 1276 _____P________ -1 -31.5794 61.3915 99 9 123
1863032S12059 1863 3 SI MM NOT_NAMED 1863-02-08 06:00:00 NR -31.8000 61.8000 reunion main 1313 1313 _____O________ -1 -31.8000 61.8000 99 9.90000 7 122
1863032S12059 1863 3 SI MM NOT_NAMED 1863-02-08 09:00:00 NR -31.9685 62.1356 main 1347 1347 _____P________ -1 -31.9685 62.1356 99 6 120
1863032S12059 1863 3 SI MM NOT_NAMED 1863-02-08 12:00:00 NR -32.0891 62.4025 main 1371 1371 _____P________ -1 -32.0891 62.4025 99 4 117
1863032S12059 1863 3 SI MM NOT_NAMED 1863-02-08 15:00:00 NR -32.1691 62.6102 main 1390 1390 _____P________ -1 -32.1691 62.6102 99 3 112
1863032S12059 1863 3 SI MM NOT_NAMED 1863-02-08 18:00:00 NR -32.2155 62.7681 main 1400 1400 _____P________ -1 -32.2155 62.7681 99 2 106
1863032S12059 1863 3 SI MM NOT_NAMED 1863-02-08 21:00:00 NR -32.2350 62.8861 main 1405 1405 _____P________ -1 -32.2350 62.8861 99 2 96
1863032S12059 1863 3 SI MM NOT_NAMED 1863-02-09 00:00:00 NR -32.2345 62.9741 main 1408 1408 _____P________ -1 -32.2345 62.9741 99 1 84
1863032S12059 1863 3 SI MM NOT_NAMED 1863-02-09 03:00:00 NR -32.2206 63.0421 main 1408 1408 _____P________ -1 -32.2206 63.0421 99 1 72
1863032S12059 1863 3 SI MM NOT_NAMED 1863-02-09 06:00:00 NR -32.2000 63.1000 reunion main 1412 _____O________ -1 -32.2000 63.1000 99 9.90000 1 68

About IBTrACS Database

This database is a web-friendly format of International Best Track Archive for Climate Stewardship (IBTrACS), a global best track data archive curated by NOAA dating back to 1842.

Updated: 2021-11-26